createdAt,value
2022-12-04T05:00:30.421Z,76.63
2022-12-04T05:04:33.114Z,77.29
2022-12-04T05:08:36.446Z,77.42
2022-12-04T05:12:39.106Z,77.19
2022-12-04T05:16:43.135Z,76.94
2022-12-04T05:20:45.725Z,77.49
2022-12-04T05:24:48.502Z,77.01
2022-12-04T05:28:51.218Z,77.03
2022-12-04T05:32:55.218Z,76.97
2022-12-04T05:36:57.924Z,77.01
2022-12-04T05:41:01.042Z,76.80
2022-12-04T05:45:03.729Z,76.73
2022-12-04T05:49:07.777Z,76.92
2022-12-04T05:53:10.454Z,76.89
2022-12-04T05:57:13.108Z,77.02
2022-12-04T06:01:17.651Z,77.07
2022-12-04T06:05:21.751Z,76.90
2022-12-04T06:09:24.538Z,76.84
2022-12-04T06:13:27.934Z,77.17
2022-12-04T06:17:30.679Z,77.18
2022-12-04T06:21:37.168Z,77.52
2022-12-04T06:25:39.820Z,77.11
2022-12-04T06:29:42.474Z,76.67
2022-12-04T06:33:45.383Z,76.73
2022-12-04T06:37:49.391Z,76.03
2022-12-04T06:41:52.003Z,76.82
2022-12-04T06:46:01.226Z,76.94
2022-12-04T06:50:04.458Z,76.41
2022-12-04T06:54:08.807Z,76.80
2022-12-04T06:58:11.475Z,76.64
2022-12-04T07:02:14.137Z,76.75
2022-12-04T07:06:19.437Z,76.95
2022-12-04T07:10:23.477Z,77.37
2022-12-04T07:14:26.208Z,77.03
2022-12-04T07:18:29.226Z,77.61
2022-12-04T07:22:31.835Z,77.10
2022-12-04T07:26:35.918Z,76.89
2022-12-04T07:30:39.274Z,76.63
2022-12-04T07:34:41.879Z,77.01
2022-12-04T07:38:44.925Z,76.94
2022-12-04T07:42:48.980Z,77.29
2022-12-04T07:46:51.635Z,77.21
2022-12-04T07:51:03.299Z,77.41
2022-12-04T07:55:07.248Z,77.48
2022-12-04T07:59:11.205Z,76.52
2022-12-04T08:03:13.858Z,76.62
2022-12-04T08:07:16.581Z,76.16
2022-12-04T08:11:22.190Z,76.27
2022-12-04T08:15:26.257Z,76.62
2022-12-04T08:19:28.942Z,76.63
2022-12-04T08:23:31.767Z,76.36
2022-12-04T08:27:34.597Z,76.42
2022-12-04T08:31:38.642Z,76.07
2022-12-04T08:35:41.310Z,75.59
2022-12-04T08:39:43.922Z,75.33
2022-12-04T08:43:46.629Z,74.91
2022-12-04T08:47:52.619Z,73.75
2022-12-04T08:51:55.475Z,73.73
2022-12-04T08:55:58.392Z,73.01
2022-12-04T09:00:01.653Z,73.83
2022-12-04T09:04:06.146Z,74.04
2022-12-04T09:08:09.292Z,74.38
2022-12-04T09:12:12.501Z,73.44
2022-12-04T09:16:17.586Z,72.39
2022-12-04T09:20:21.784Z,71.54
2022-12-04T09:24:24.422Z,71.75
2022-12-04T09:28:27.201Z,72.22
2022-12-04T09:32:29.822Z,72.63
2022-12-04T09:36:33.806Z,72.88
2022-12-04T09:40:44.140Z,72.89
2022-12-04T09:44:51.467Z,72.88
2022-12-04T09:48:57.083Z,72.33
2022-12-04T09:53:07.373Z,72.83
2022-12-04T09:57:18.048Z,73.05
2022-12-04T10:01:23.888Z,73.51
2022-12-04T10:05:38.972Z,72.96
2022-12-04T10:09:52.542Z,73.48
2022-12-04T10:14:07.103Z,73.91
2022-12-04T10:18:23.307Z,74.37
2022-12-04T10:22:34.468Z,73.49
2022-12-04T10:26:44.533Z,73.85
2022-12-04T10:30:49.257Z,73.00
2022-12-04T10:34:55.116Z,73.05
2022-12-04T10:39:00.532Z,72.75
2022-12-04T10:43:12.492Z,72.75
2022-12-04T10:47:15.447Z,72.51
2022-12-04T10:51:20.199Z,72.46
2022-12-04T10:55:30.521Z,72.44
2022-12-04T10:59:37.020Z,72.30
2022-12-04T11:03:40.445Z,72.39
2022-12-04T11:07:46.393Z,71.76
2022-12-04T11:11:50.013Z,71.97
2022-12-04T11:15:55.906Z,72.08
2022-12-04T11:20:02.838Z,71.53
2022-12-04T11:24:05.996Z,71.70
2022-12-04T11:28:39.877Z,71.25
2022-12-04T11:32:42.081Z,71.46
2022-12-04T11:36:50.715Z,71.62
2022-12-04T11:40:56.039Z,71.00
2022-12-04T11:45:00.048Z,71.18
2022-12-04T11:49:04.353Z,71.80
2022-12-04T11:53:16.865Z,71.09
2022-12-04T11:57:29.536Z,71.47
2022-12-04T12:01:41.949Z,71.38
2022-12-04T12:06:07.042Z,72.09
2022-12-04T12:10:20.088Z,71.89
2022-12-04T12:14:31.366Z,71.53
2022-12-04T12:18:55.771Z,71.93
2022-12-04T12:23:24.585Z,72.74
2022-12-04T12:27:47.371Z,72.93
2022-12-04T12:32:09.888Z,72.61
2022-12-04T12:36:14.901Z,72.81
2022-12-04T12:40:30.137Z,72.66
2022-12-04T12:44:41.678Z,72.56
2022-12-04T12:48:57.969Z,73.33
2022-12-04T12:53:06.236Z,74.03
2022-12-04T12:57:15.794Z,72.89
2022-12-04T13:01:23.750Z,73.26
2022-12-04T13:05:31.217Z,73.53
2022-12-04T13:09:38.864Z,73.58
2022-12-04T13:13:47.123Z,73.80
2022-12-04T13:17:52.771Z,73.95
2022-12-04T13:22:07.771Z,73.94
2022-12-04T13:26:23.489Z,73.46
2022-12-04T13:30:37.943Z,73.83
2022-12-04T13:34:51.697Z,74.04
2022-12-04T13:39:19.826Z,73.35
2022-12-04T13:43:46.999Z,75.07
2022-12-04T13:47:58.133Z,74.80
2022-12-04T13:52:03.002Z,74.67
2022-12-04T13:56:10.324Z,74.79
2022-12-04T14:00:28.947Z,74.65
2022-12-04T14:04:41.367Z,74.91
2022-12-04T14:08:44.882Z,75.05
2022-12-04T14:12:51.938Z,75.02
2022-12-04T14:16:56.072Z,74.63
2022-12-04T14:21:04.532Z,74.29
2022-12-04T14:25:35.737Z,74.61
2022-12-04T14:29:50.794Z,74.33
2022-12-04T14:33:57.941Z,74.53
2022-12-04T14:38:05.145Z,75.03
2022-12-04T14:42:14.801Z,75.59
2022-12-04T14:46:24.414Z,75.29
2022-12-04T14:50:35.147Z,75.71
2022-12-04T14:54:47.199Z,75.35
2022-12-04T14:58:50.370Z,75.36
2022-12-04T15:02:56.090Z,75.15
2022-12-04T15:07:00.731Z,75.40
2022-12-04T15:11:24.801Z,74.72
2022-12-04T15:15:28.725Z,74.69
2022-12-04T15:19:31.258Z,74.69
2022-12-04T15:23:37.272Z,75.36
2022-12-04T15:27:41.661Z,75.91
2022-12-04T15:31:50.245Z,75.47
2022-12-04T15:35:57.046Z,75.87
2022-12-04T15:40:00.523Z,75.97
2022-12-04T15:44:22.021Z,75.21
2022-12-04T15:48:29.321Z,75.85
2022-12-04T15:52:32.004Z,75.57
2022-12-04T15:56:34.618Z,75.66
2022-12-04T16:00:42.430Z,75.32
2022-12-04T16:04:57.054Z,75.20
2022-12-04T16:09:01.649Z,75.58
2022-12-04T16:13:06.217Z,75.68
2022-12-04T16:17:11.689Z,75.92
2022-12-04T16:21:17.329Z,76.16
2022-12-04T16:25:20.079Z,75.92
2022-12-04T16:29:23.066Z,75.77
2022-12-04T16:33:27.043Z,75.49
2022-12-04T16:37:31.629Z,75.35
2022-12-04T16:41:34.298Z,75.20
2022-12-04T16:45:37.138Z,75.57
2022-12-04T16:49:41.895Z,75.84
2022-12-04T16:53:45.148Z,75.24
2022-12-04T16:57:48.133Z,75.02
2022-12-04T17:01:52.395Z,75.38
2022-12-04T17:05:57.394Z,75.63
2022-12-04T17:09:59.965Z,75.16
2022-12-04T17:14:06.953Z,75.32
2022-12-04T17:18:13.905Z,74.33
2022-12-04T17:22:23.112Z,74.70
2022-12-04T17:26:25.692Z,74.34
2022-12-04T17:30:32.873Z,74.65
2022-12-04T17:34:38.904Z,75.11
2022-12-04T17:38:43.249Z,75.64
2022-12-04T17:42:45.837Z,75.77
2022-12-04T17:46:48.493Z,75.98
2022-12-04T17:50:51.534Z,76.26
2022-12-04T17:54:55.859Z,76.19
2022-12-04T17:58:58.798Z,75.95
2022-12-04T18:03:02.511Z,76.27
2022-12-04T18:07:05.345Z,76.88
2022-12-04T18:11:09.672Z,76.70
2022-12-04T18:15:12.328Z,77.57
2022-12-04T18:19:15.940Z,77.32
2022-12-04T18:23:18.388Z,76.89
2022-12-04T18:27:22.410Z,77.17
2022-12-04T18:31:25.316Z,77.30
2022-12-04T18:35:28.007Z,77.36
2022-12-04T18:39:30.739Z,77.59
2022-12-04T18:43:35.453Z,77.57
2022-12-04T18:47:38.071Z,76.71
2022-12-04T18:51:45.812Z,77.24
2022-12-04T18:55:52.177Z,76.87
2022-12-04T18:59:56.409Z,76.70
2022-12-04T19:04:01.326Z,76.61
2022-12-04T19:08:04.319Z,77.30
2022-12-04T19:12:07.365Z,77.39
2022-12-04T19:16:14.014Z,77.21
2022-12-04T19:20:18.135Z,77.75
2022-12-04T19:24:20.735Z,77.90
2022-12-04T19:28:23.426Z,77.22
2022-12-04T19:32:27.497Z,77.63
2022-12-04T19:36:32.919Z,77.07
2022-12-04T19:40:35.542Z,77.69
2022-12-04T19:44:53.780Z,77.49
2022-12-04T19:49:01.922Z,77.79
2022-12-04T19:53:04.979Z,77.75
2022-12-04T19:57:07.672Z,77.63
2022-12-04T20:01:13.096Z,77.54
2022-12-04T20:05:17.279Z,77.37
2022-12-04T20:09:21.975Z,78.03
2022-12-04T20:13:24.609Z,77.30
2022-12-04T20:17:28.919Z,77.35
2022-12-04T20:21:33.290Z,77.42
2022-12-04T20:25:36.441Z,77.25
2022-12-04T20:29:39.063Z,77.46
2022-12-04T20:33:41.986Z,77.25
2022-12-04T20:37:45.943Z,77.08
2022-12-04T20:41:48.853Z,76.61
2022-12-04T20:45:51.603Z,76.81
2022-12-04T20:49:54.538Z,76.58
2022-12-04T20:54:00.095Z,76.16
2022-12-04T20:58:02.688Z,76.03
2022-12-04T21:02:05.378Z,76.03
2022-12-04T21:06:13.233Z,76.92
2022-12-04T21:10:17.282Z,76.99
2022-12-04T21:14:39.351Z,76.99
2022-12-04T21:18:41.941Z,76.91
2022-12-04T21:22:44.781Z,77.06
2022-12-04T21:26:49.125Z,76.88
2022-12-04T21:30:51.818Z,77.76
2022-12-04T21:34:54.498Z,77.77
2022-12-04T21:38:58.249Z,78.00
2022-12-04T21:43:02.209Z,77.46
2022-12-04T21:47:05.013Z,77.89
2022-12-04T21:51:21.534Z,77.91
2022-12-04T21:55:31.201Z,77.63
2022-12-04T21:59:35.168Z,77.57
